Time;durP1;ratioP1;P1;durP2;ratioP2;P2;SDS_P1;SDS_P2;PMS_P1;PMS_P2;Temp;Humidity;BMP_temperature;BMP_pressure;BME280_temperature;BME280_humidity;BME280_pressure;Samples;Min_cycle;Max_cycle;Signal;HPM_P1;HPM_P2
2024/04/01 00:00:20;;;;;;;26.20;5.00;;;;;;;15.96;46.53;95343.14;108502;1276;22660;-73
2024/04/01 00:03:16;;;;;;;20.20;4.10;;;;;;;15.98;46.59;95348.66;108454;1278;24442;-73
2024/04/01 00:05:56;;;;;;;25.40;4.20;;;;;;;15.97;46.64;95338.71;108424;1278;22676;-74
2024/04/01 00:08:32;;;;;;;33.90;5.30;;;;;;;15.97;46.64;95353.02;108451;1271;23676;-73
2024/04/01 00:11:05;;;;;;;23.60;4.70;;;;;;;15.87;46.80;95352.96;108514;1277;22526;-73
2024/04/01 00:13:39;;;;;;;22.80;4.30;;;;;;;15.85;46.73;95337.40;108534;1277;22561;-73
2024/04/01 00:16:12;;;;;;;23.30;4.70;;;;;;;15.89;46.77;95357.97;108514;1277;23802;-73
2024/04/01 00:18:43;;;;;;;25.30;4.60;;;;;;;15.81;46.84;95366.55;108446;1278;24246;-73
2024/04/01 00:21:17;;;;;;;19.80;3.70;;;;;;;15.79;46.89;95364.74;108465;1276;22530;-73
2024/04/01 00:23:56;;;;;;;20.00;4.20;;;;;;;15.80;46.94;95359.29;108512;1276;24717;-74
2024/04/01 00:26:29;;;;;;;21.70;4.10;;;;;;;15.85;46.78;95363.30;108526;1278;22638;-73
2024/04/01 00:29:02;;;;;;;17.80;3.30;;;;;;;15.83;46.83;95359.04;108609;1278;23808;-74
2024/04/01 00:31:36;;;;;;;32.90;3.90;;;;;;;15.76;46.90;95354.96;108492;1278;22534;-74
2024/04/01 00:34:07;;;;;;;25.20;4.10;;;;;;;15.80;46.73;95337.28;108442;1279;22535;-73
2024/04/01 00:36:38;;;;;;;19.00;3.70;;;;;;;15.87;46.71;95336.93;108502;1278;22531;-74
2024/04/01 00:39:09;;;;;;;21.80;4.80;;;;;;;15.86;46.78;95332.85;108490;1255;22534;-73
2024/04/01 00:41:41;;;;;;;19.50;4.80;;;;;;;15.94;46.41;95334.21;108439;1278;23296;-73
2024/04/01 00:44:12;;;;;;;24.70;4.90;;;;;;;16.06;45.98;95323.06;108478;1279;22653;-73
2024/04/01 00:46:48;;;;;;;25.80;3.70;;;;;;;16.11;46.00;95332.66;108486;1271;22550;-74
2024/04/01 00:49:20;;;;;;;17.90;4.50;;;;;;;16.08;45.99;95319.30;108407;1278;22519;-74
2024/04/01 00:51:54;;;;;;;25.80;5.00;;;;;;;16.09;45.80;95318.46;108499;1278;24207;-74
2024/04/01 00:54:27;;;;;;;18.40;4.00;;;;;;;16.10;45.71;95322.55;108481;1271;22522;-74
2024/04/01 00:57:01;;;;;;;18.20;3.60;;;;;;;16.09;45.69;95327.80;108458;1278;22669;-74
2024/04/01 00:59:39;;;;;;;25.40;4.30;;;;;;;16.14;45.47;95324.40;108480;1275;22529;-74
2024/04/01 01:02:12;;;;;;;16.10;3.70;;;;;;;16.14;45.43;95324.63;108449;1277;23750;-74
2024/04/01 01:04:49;;;;;;;21.40;4.00;;;;;;;16.18;45.15;95303.42;108339;1274;22574;-74
2024/04/01 01:07:21;;;;;;;15.60;3.90;;;;;;;16.27;44.81;95297.37;108472;1277;22774;-74
2024/04/01 01:09:55;;;;;;;27.90;5.20;;;;;;;16.37;44.55;95297.30;108478;1277;24228;-73
2024/04/01 01:12:26;;;;;;;18.20;4.40;;;;;;;16.40;44.43;95303.17;108484;1277;24199;-74
2024/04/01 01:15:04;;;;;;;18.90;3.80;;;;;;;16.39;44.49;95299.09;108494;1277;22576;-74
2024/04/01 01:17:40;;;;;;;19.50;4.90;;;;;;;16.30;44.71;95309.14;108457;1277;22534;-74
2024/04/01 01:20:15;;;;;;;22.70;4.80;;;;;;;16.24;44.85;95305.48;108405;1272;22515;-74
2024/04/01 01:22:49;;;;;;;26.80;3.80;;;;;;;16.18;44.93;95290.58;108431;1272;23681;-74
2024/04/01 01:25:20;;;;;;;21.90;4.70;;;;;;;16.18;44.93;95299.45;108478;1272;22632;-74
2024/04/01 01:27:53;;;;;;;22.50;3.60;;;;;;;16.14;45.17;95304.46;108478;1277;22529;-73
2024/04/01 01:30:32;;;;;;;19.90;3.30;;;;;;;16.12;45.16;95293.33;108518;1272;22523;-73
2024/04/01 01:33:03;;;;;;;13.90;2.90;;;;;;;16.15;45.16;95300.27;108380;1274;22587;-73
2024/04/01 01:35:38;;;;;;;27.30;4.80;;;;;;;16.15;45.26;95306.38;108478;1271;22564;-73
2024/04/01 01:38:14;;;;;;;20.80;3.70;;;;;;;16.10;45.33;95303.21;108484;1277;22917;-74
2024/04/01 01:40:46;;;;;;;19.20;4.60;;;;;;;16.08;45.52;95301.79;108522;1277;22525;-73
2024/04/01 01:43:17;;;;;;;26.40;4.00;;;;;;;16.07;45.68;95289.10;108466;1271;22653;-73
2024/04/01 01:45:50;;;;;;;21.50;4.60;;;;;;;16.13;45.69;95282.20;108464;1271;22754;-74
2024/04/01 01:48:21;;;;;;;19.80;4.50;;;;;;;16.21;45.57;95268.34;108433;1277;22522;-74
2024/04/01 01:50:52;;;;;;;19.40;4.10;;;;;;;16.30;45.47;95280.48;108504;1270;22522;-73
2024/04/01 01:53:23;;;;;;;18.60;4.60;;;;;;;16.31;45.58;95293.34;108476;1271;22838;-74
2024/04/01 01:55:56;;;;;;;20.20;4.10;;;;;;;16.31;45.60;95278.29;108401;1272;22522;-74
2024/04/01 01:58:26;;;;;;;25.80;4.50;;;;;;;16.37;45.59;95297.38;108465;1277;22538;-74
2024/04/01 02:00:58;;;;;;;18.40;4.00;;;;;;;16.32;45.73;95303.98;108368;1271;22552;-74
2024/04/01 02:03:29;;;;;;;31.80;5.80;;;;;;;16.24;45.99;95291.11;108453;1277;22534;-74
2024/04/01 02:06:00;;;;;;;24.50;4.70;;;;;;;16.20;45.96;95308.20;108411;1271;22747;-74
2024/04/01 02:08:33;;;;;;;27.40;4.80;;;;;;;16.11;46.20;95303.09;108486;1277;22728;-74
2024/04/01 02:11:04;;;;;;;24.20;5.10;;;;;;;16.08;46.50;95310.36;108457;1273;22562;-73
2024/04/01 02:13:37;;;;;;;25.50;6.10;;;;;;;16.14;46.63;95309.80;108468;1272;22702;-74
2024/04/01 02:16:10;;;;;;;27.40;4.70;;;;;;;16.21;46.68;95310.83;108428;1271;22608;-74
2024/04/01 02:18:45;;;;;;;25.90;5.30;;;;;;;16.15;46.69;95317.46;108404;1277;25281;-74
2024/04/01 02:21:18;;;;;;;23.40;4.80;;;;;;;16.06;46.77;95323.45;108462;1277;23779;-74
2024/04/01 02:23:49;;;;;;;22.90;4.80;;;;;;;16.05;47.04;95319.69;108482;1277;22528;-74
2024/04/01 02:26:26;;;;;;;29.60;6.30;;;;;;;16.09;47.18;95324.29;108529;1271;22538;-73
2024/04/01 02:28:59;;;;;;;30.80;5.30;;;;;;;16.14;47.34;95297.34;108479;1275;22785;-73
2024/04/01 02:31:30;;;;;;;26.40;4.90;;;;;;;16.24;47.22;95305.55;108388;1277;22626;-74
2024/04/01 02:34:05;;;;;;;24.40;5.90;;;;;;;16.28;47.29;95316.40;108515;1277;22498;-74
2024/04/01 02:36:36;;;;;;;28.70;4.70;;;;;;;16.30;47.36;95307.52;108481;1272;24256;-74
2024/04/01 02:39:07;;;;;;;28.80;6.00;;;;;;;16.37;47.44;95327.27;108486;1277;22532;-74
2024/04/01 02:41:38;;;;;;;25.60;6.00;;;;;;;16.41;47.66;95310.76;108470;1277;22526;-74
2024/04/01 02:44:09;;;;;;;35.90;7.80;;;;;;;16.50;47.48;95304.17;108477;1276;22518;-74
2024/04/01 02:47:06;;;;;;;28.20;5.70;;;;;;;16.50;47.46;95305.34;108407;1271;22559;-74
2024/04/01 02:49:39;;;;;;;26.70;4.80;;;;;;;16.51;47.48;95317.81;108400;1278;22640;-74
2024/04/01 02:52:12;;;;;;;38.10;7.20;;;;;;;16.50;47.69;95303.88;108474;1278;25151;-74
2024/04/01 02:54:48;;;;;;;42.20;7.20;;;;;;;16.50;47.71;95320.84;108445;1278;22525;-74
2024/04/01 02:57:19;;;;;;;38.00;5.90;;;;;;;16.46;47.76;95327.70;108402;1276;24001;-73
2024/04/01 02:59:56;;;;;;;28.10;6.00;;;;;;;16.42;48.08;95312.69;108445;1276;25513;-73
2024/04/01 03:02:27;;;;;;;31.40;6.10;;;;;;;16.40;48.11;95318.83;108539;1271;22515;-73
2024/04/01 03:05:01;;;;;;;38.20;6.90;;;;;;;16.40;48.19;95309.89;108483;1277;24103;-73
2024/04/01 03:07:32;;;;;;;35.40;7.00;;;;;;;16.37;48.37;95306.32;108470;1278;24329;-73
2024/04/01 03:10:04;;;;;;;40.00;6.70;;;;;;;16.36;48.67;95287.20;108477;1272;22522;-73
2024/04/01 03:12:38;;;;;;;54.70;8.90;;;;;;;16.34;48.60;95296.85;108448;1272;22524;-73
2024/04/01 03:15:16;;;;;;;38.70;8.90;;;;;;;16.30;48.54;95297.20;108446;1271;22540;-74
2024/04/01 03:17:47;;;;;;;36.20;6.90;;;;;;;16.27;48.81;95286.66;108333;1271;22639;-73
2024/04/01 03:20:21;;;;;;;44.90;7.70;;;;;;;16.26;48.93;95295.35;108487;1277;23664;-73
2024/04/01 03:22:54;;;;;;;41.60;6.40;;;;;;;16.28;48.88;95282.48;108442;1271;22569;-73
2024/04/01 03:25:25;;;;;;;44.30;8.60;;;;;;;16.34;49.03;95257.13;108450;1278;22597;-74
2024/04/01 03:27:55;;;;;;;47.30;9.50;;;;;;;16.38;48.89;95260.95;108436;1271;22546;-73
2024/04/01 03:30:29;;;;;;;39.80;6.80;;;;;;;16.34;48.79;95267.95;108460;1277;23134;-73
2024/04/01 03:33:04;;;;;;;46.70;10.00;;;;;;;16.28;48.90;95267.11;108415;1278;22520;-74
2024/04/01 03:35:34;;;;;;;41.20;7.90;;;;;;;16.25;48.97;95263.16;108490;1265;22592;-73
2024/04/01 03:38:05;;;;;;;50.00;10.50;;;;;;;16.28;49.01;95259.10;108455;1279;22579;-74
2024/04/01 03:40:42;;;;;;;43.30;8.50;;;;;;;16.30;49.03;95250.44;108448;1279;25430;-74
2024/04/01 03:43:15;;;;;;;49.80;9.20;;;;;;;16.32;49.20;95255.90;108439;1272;22574;-74
2024/04/01 03:45:46;;;;;;;44.80;9.20;;;;;;;16.35;49.20;95237.73;108420;1278;23960;-74
2024/04/01 03:48:19;;;;;;;45.20;8.30;;;;;;;16.34;49.03;95247.04;108458;1272;22570;-73
2024/04/01 03:50:51;;;;;;;49.80;8.80;;;;;;;16.34;49.06;95250.86;108481;1277;22559;-73
2024/04/01 03:53:22;;;;;;;54.60;10.00;;;;;;;16.42;48.98;95255.29;108443;1278;25426;-73
2024/04/01 03:55:55;;;;;;;57.20;9.50;;;;;;;16.46;48.92;95269.66;108436;1277;24917;-73
2024/04/01 03:58:26;;;;;;;48.00;9.30;;;;;;;16.47;48.82;95278.66;108464;1273;22519;-73
2024/04/01 04:00:56;;;;;;;47.70;9.80;;;;;;;16.46;48.92;95283.51;108435;1274;22518;-74
2024/04/01 04:03:27;;;;;;;39.80;9.30;;;;;;;16.40;48.86;95286.98;108462;1278;22523;-74
2024/04/01 04:06:00;;;;;;;41.50;8.00;;;;;;;16.37;49.07;95291.94;108427;1278;22515;-73
2024/04/01 04:08:34;;;;;;;46.10;8.80;;;;;;;16.36;49.09;95295.96;108427;1277;22536;-73
2024/04/01 04:11:09;;;;;;;40.70;8.50;;;;;;;16.34;48.97;95306.64;108440;1271;22647;-74
2024/04/01 04:13:42;;;;;;;48.30;8.60;;;;;;;16.33;49.04;95305.77;108514;1274;25311;-74
2024/04/01 04:16:14;;;;;;;39.20;7.70;;;;;;;16.28;49.12;95311.45;108401;1278;22568;-74
2024/04/01 04:18:47;;;;;;;38.70;7.40;;;;;;;16.30;49.07;95320.89;108505;1274;24447;-74
2024/04/01 04:21:18;;;;;;;40.30;8.30;;;;;;;16.35;49.04;95322.56;108470;1277;22573;-74
2024/04/01 04:23:51;;;;;;;43.10;8.40;;;;;;;16.34;48.94;95320.08;108448;1278;25302;-74
2024/04/01 04:26:21;;;;;;;48.10;9.50;;;;;;;16.32;48.99;95316.73;108429;1278;22545;-74
2024/04/01 04:28:57;;;;;;;47.00;10.20;;;;;;;16.24;49.06;95323.05;108440;1278;22522;-74
2024/04/01 04:31:28;;;;;;;41.00;7.90;;;;;;;16.16;49.25;95326.89;108439;1268;22557;-74
2024/04/01 04:33:59;;;;;;;48.20;7.40;;;;;;;16.11;49.35;95329.59;108477;1278;22489;-74
2024/04/01 04:36:33;;;;;;;56.30;11.00;;;;;;;16.06;49.41;95318.92;108470;1278;22530;-74
2024/04/01 04:39:19;;;;;;;40.90;8.00;;;;;;;15.98;49.57;95328.05;108444;1279;22490;-74
2024/04/01 04:41:49;;;;;;;63.50;9.60;;;;;;;15.89;49.66;95324.30;108457;1271;23822;-74
2024/04/01 04:44:22;;;;;;;45.50;8.40;;;;;;;15.84;49.84;95322.73;108451;1278;22589;-74
2024/04/01 04:46:54;;;;;;;44.20;8.80;;;;;;;15.73;49.91;95324.65;108393;1271;22519;-74
2024/04/01 04:49:28;;;;;;;50.40;8.20;;;;;;;15.64;50.09;95331.23;108453;1278;22535;-74
2024/04/01 04:52:04;;;;;;;50.60;8.40;;;;;;;15.58;50.26;95320.81;108513;1278;23081;-74
2024/04/01 04:54:35;;;;;;;61.00;11.00;;;;;;;15.46;50.54;95317.44;108469;1271;24224;-74
2024/04/01 04:57:07;;;;;;;53.40;10.40;;;;;;;15.39;50.78;95307.10;108503;1278;24205;-74
2024/04/01 04:59:42;;;;;;;55.10;8.90;;;;;;;15.38;51.01;95318.07;108489;1278;22532;-74
2024/04/01 05:02:17;;;;;;;50.30;8.70;;;;;;;15.38;51.20;95307.70;108445;1278;26022;-74
2024/04/01 05:04:50;;;;;;;45.40;10.00;;;;;;;15.43;51.32;95302.70;108468;1278;22524;-74
2024/04/01 05:07:22;;;;;;;53.20;9.30;;;;;;;15.49;51.50;95300.70;108428;1278;22515;-74
2024/04/01 05:09:53;;;;;;;47.30;8.80;;;;;;;15.50;51.61;95295.10;108394;1271;22942;-74
2024/04/01 05:12:27;;;;;;;60.70;11.20;;;;;;;15.51;51.92;95290.84;108420;1271;22840;-74
2024/04/01 05:14:58;;;;;;;44.40;9.30;;;;;;;15.62;51.98;95296.05;108447;1274;22505;-74
2024/04/01 05:17:29;;;;;;;45.60;7.70;;;;;;;16.03;52.18;95297.31;108433;1276;24683;-73
2024/04/01 05:20:04;;;;;;;43.20;7.70;;;;;;;16.58;51.30;95278.73;108476;1278;23139;-74
2024/04/01 05:22:34;;;;;;;39.20;7.60;;;;;;;17.05;50.61;95271.88;108446;1279;22558;-74
2024/04/01 05:25:06;;;;;;;39.90;7.90;;;;;;;17.41;49.97;95265.02;108433;1278;22588;-74
2024/04/01 05:27:37;;;;;;;35.30;7.60;;;;;;;17.73;49.43;95266.36;108475;1273;22521;-73
2024/04/01 05:30:14;;;;;;;42.30;7.30;;;;;;;18.23;49.18;95269.14;108384;1276;22544;-73
2024/04/01 05:32:47;;;;;;;40.10;8.40;;;;;;;18.59;48.13;95261.09;108470;1278;24264;-72
2024/04/01 05:35:19;;;;;;;39.20;7.50;;;;;;;18.73;48.36;95259.39;108479;1278;23677;-74
2024/04/01 05:37:50;;;;;;;42.60;8.60;;;;;;;19.06;48.47;95268.41;108442;1272;22515;-72
2024/04/01 05:40:20;;;;;;;47.00;9.20;;;;;;;19.38;47.68;95275.70;108414;1256;22521;-73
2024/04/01 05:42:51;;;;;;;47.40;8.10;;;;;;;19.09;46.62;95261.62;108452;1278;22532;-73
2024/04/01 05:45:25;;;;;;;40.50;7.10;;;;;;;18.93;46.70;95255.83;108371;1272;24328;-73
2024/04/01 05:47:58;;;;;;;38.40;8.30;;;;;;;19.34;47.19;95260.91;108412;1276;22550;-73
2024/04/01 05:50:29;;;;;;;40.80;7.80;;;;;;;19.85;47.09;95258.00;108424;1276;22833;-74
2024/04/01 05:53:07;;;;;;;40.30;7.40;;;;;;;19.99;46.18;95247.60;108452;1271;22562;-74
2024/04/01 05:55:43;;;;;;;42.10;7.50;;;;;;;19.93;46.41;95235.79;108422;1272;22548;-74
2024/04/01 05:58:18;;;;;;;35.30;7.50;;;;;;;19.89;45.87;95223.91;108464;1277;22522;-73
2024/04/01 06:00:50;;;;;;;35.40;7.10;;;;;;;19.67;45.95;95233.25;108387;1277;22829;-73
2024/04/01 06:03:22;;;;;;;23.40;6.50;;;;;;;19.64;45.81;95232.91;108474;1275;22537;-74
2024/04/01 06:05:55;;;;;;;32.60;7.80;;;;;;;19.27;44.89;95232.89;108243;1275;182738;-73
2024/04/01 06:08:26;;;;;;;36.50;7.30;;;;;;;19.16;45.66;95229.77;108452;1272;22964;-73
2024/04/01 06:10:57;;;;;;;36.10;7.50;;;;;;;19.43;45.74;95225.16;108429;1272;24229;-73
2024/04/01 06:13:28;;;;;;;32.80;6.30;;;;;;;19.76;45.63;95214.90;108504;1271;22561;-73
2024/04/01 06:16:00;;;;;;;38.40;7.30;;;;;;;20.06;45.60;95202.23;108410;1278;22522;-73
2024/04/01 06:18:31;;;;;;;29.80;8.20;;;;;;;20.67;45.19;95205.20;108425;1276;23841;-73
2024/04/01 06:21:07;;;;;;;37.20;6.70;;;;;;;20.52;44.75;95202.95;108426;1278;22522;-73
2024/04/01 06:23:37;;;;;;;33.70;8.10;;;;;;;20.95;45.53;95214.94;108388;1272;22531;-73
2024/04/01 06:26:08;;;;;;;48.20;8.30;;;;;;;21.24;44.19;95220.83;108455;1278;22580;-73
2024/04/01 06:28:39;;;;;;;35.50;7.60;;;;;;;21.56;44.27;95187.19;108455;1278;24234;-73
2024/04/01 06:31:14;;;;;;;35.70;7.20;;;;;;;22.45;43.71;95188.27;108398;1272;23476;-74
2024/04/01 06:33:47;;;;;;;39.80;7.60;;;;;;;23.18;43.04;95186.73;108386;1278;25421;-74
2024/04/01 06:36:19;;;;;;;39.70;7.80;;;;;;;24.43;42.26;95192.58;108488;1278;51600;-74
2024/04/01 06:38:51;;;;;;;36.90;8.50;;;;;;;25.49;40.73;95193.42;108460;1276;22532;-73
2024/04/01 06:53:21;;;;;;;48.40;9.10;;;;;;;23.14;39.85;95211.17;106129;1295;557804;-73
2024/04/01 06:55:52;;;;;;;38.10;8.70;;;;;;;22.41;40.16;95207.96;107533;1286;186648;-75
2024/04/01 06:58:22;;;;;;;44.00;8.50;;;;;;;22.01;40.74;95208.66;107727;1285;24302;-76
2024/04/01 07:00:53;;;;;;;47.20;8.80;;;;;;;21.94;40.92;95214.12;107763;1286;22551;-75
2024/04/01 07:03:24;;;;;;;49.20;9.80;;;;;;;22.65;41.82;95192.06;107778;1286;22773;-75
2024/04/01 07:05:55;;;;;;;53.90;10.00;;;;;;;23.95;40.89;95199.73;107791;1280;22537;-76
2024/04/01 07:08:29;;;;;;;39.60;8.50;;;;;;;23.76;39.12;95204.81;107628;1282;22526;-75
2024/04/01 07:11:00;;;;;;;42.30;8.20;;;;;;;22.76;39.44;95184.09;107871;1283;22528;-75
2024/04/01 07:13:31;;;;;;;31.30;7.00;;;;;;;21.45;39.86;95196.54;107802;1284;24258;-75
2024/04/01 07:16:04;;;;;;;37.70;8.20;;;;;;;20.49;41.12;95199.69;107722;1285;22586;-75
2024/04/01 07:18:35;;;;;;;45.50;9.80;;;;;;;20.11;41.99;95198.66;107683;1285;22575;-75
2024/04/01 07:21:07;;;;;;;56.90;9.60;;;;;;;20.32;42.49;95185.96;107838;1285;22532;-76
2024/04/01 07:23:37;;;;;;;53.00;9.00;;;;;;;20.55;43.14;95190.20;107811;1285;22531;-75
2024/04/01 07:26:08;;;;;;;42.80;9.90;;;;;;;20.79;42.93;95181.32;108651;1267;22537;-75
2024/04/01 07:28:39;;;;;;;45.50;8.60;;;;;;;21.31;42.45;95156.70;108577;1275;22531;-75
2024/04/01 07:31:13;;;;;;;45.10;10.60;;;;;;;22.27;41.60;95149.41;108577;1267;25387;-76
2024/04/01 07:33:44;;;;;;;49.00;9.80;;;;;;;23.13;40.71;95140.96;108616;1273;22545;-76
2024/04/01 07:36:15;;;;;;;48.20;8.30;;;;;;;23.92;40.95;95151.09;108630;1273;22528;-75
2024/04/01 07:38:45;;;;;;;45.20;8.80;;;;;;;24.34;38.83;95140.38;108673;1273;25409;-76
2024/04/01 07:41:16;;;;;;;47.30;8.80;;;;;;;23.90;37.33;95126.91;108703;1267;22519;-76
2024/04/01 07:43:56;;;;;;;43.40;7.70;;;;;;;24.43;36.97;95126.87;108566;1258;25271;-75
2024/04/01 07:46:25;;;;;;;;;;;;;;;24.97;33.33;95118.05;108572;1275;22616;-75
2024/04/01 07:48:55;;;;;;;63.70;11.00;;;;;;;25.04;33.69;95124.34;108558;1267;22566;-75
2024/04/01 07:51:26;;;;;;;51.60;11.30;;;;;;;26.11;33.84;95123.43;108569;1275;25421;-75
2024/04/01 07:53:58;;;;;;;51.80;11.10;;;;;;;26.62;31.81;95103.65;108543;1267;22551;-76
2024/04/01 07:56:29;;;;;;;51.20;9.80;;;;;;;26.19;31.71;95133.92;108650;1273;22528;-75
2024/04/01 07:59:00;;;;;;;51.60;11.00;;;;;;;25.83;32.15;95131.50;108608;1273;22544;-75
2024/04/01 08:01:31;;;;;;;55.80;10.60;;;;;;;25.29;32.41;95131.11;108623;1273;24254;-76
2024/04/01 08:04:01;;;;;;;44.00;9.10;;;;;;;24.46;32.82;95123.14;108629;1273;25285;-75
2024/04/01 08:06:32;;;;;;;49.60;9.90;;;;;;;23.43;33.76;95121.85;108633;1273;24250;-75
2024/04/01 08:09:03;;;;;;;56.20;10.50;;;;;;;22.77;34.79;95120.19;108662;1270;22524;-75
2024/04/01 08:11:34;;;;;;;56.20;10.30;;;;;;;22.20;35.65;95123.14;108653;1250;22976;-74
2024/04/01 08:14:04;;;;;;;62.60;10.40;;;;;;;22.02;35.95;95138.17;108648;1273;22549;-75
2024/04/01 08:16:35;;;;;;;43.20;8.40;;;;;;;22.02;36.43;95130.48;108611;1274;23239;-74
2024/04/01 08:19:05;;;;;;;51.90;9.30;;;;;;;21.87;35.88;95127.32;108704;1274;22516;-75
2024/04/01 08:21:37;;;;;;;39.20;9.60;;;;;;;21.78;36.15;95129.40;108730;1267;22525;-75
2024/04/01 08:24:08;;;;;;;43.40;9.50;;;;;;;22.22;36.16;95124.11;108716;1274;22519;-75
2024/04/01 08:26:39;;;;;;;46.00;7.50;;;;;;;22.59;34.90;95097.17;108695;1274;22903;-75
2024/04/01 08:29:12;;;;;;;49.70;9.20;;;;;;;22.55;34.48;95080.75;108552;1274;22645;-75
2024/04/01 08:31:42;;;;;;;46.30;9.10;;;;;;;22.91;34.68;95094.34;108610;1273;22522;-75
2024/04/01 08:34:13;;;;;;;43.40;8.60;;;;;;;23.72;34.34;95085.77;108659;1274;24485;-75
2024/04/01 08:36:44;;;;;;;47.20;9.00;;;;;;;24.33;34.05;95085.98;108663;1267;22837;-75
2024/04/01 08:39:15;;;;;;;54.50;9.60;;;;;;;24.45;32.41;95067.66;108662;1274;25352;-75
2024/04/01 08:41:57;;;;;;;26.10;6.60;;;;;;;24.17;32.74;95078.15;108582;1274;22523;-75
2024/04/01 08:44:32;;;;;;;49.10;9.60;;;;;;;23.96;32.87;95080.85;108555;1270;22559;-75
2024/04/01 08:47:04;;;;;;;52.50;10.50;;;;;;;23.95;33.60;95073.75;108659;1275;25278;-75
2024/04/01 08:49:44;;;;;;;52.60;10.00;;;;;;;24.06;33.38;95076.11;108560;1268;22625;-75
2024/04/01 08:52:20;;;;;;;42.00;8.60;;;;;;;23.97;33.82;95080.30;108401;1268;22555;-75
2024/04/01 08:54:54;;;;;;;49.40;10.20;;;;;;;24.30;33.68;95080.36;108315;1268;22530;-75
2024/04/01 08:57:26;;;;;;;40.40;9.20;;;;;;;24.42;33.30;95062.13;108751;1268;22543;-75
2024/04/01 08:59:58;;;;;;;38.60;8.20;;;;;;;24.25;32.66;95072.29;108452;1268;23941;-75
2024/04/01 09:02:28;;;;;;;46.60;9.20;;;;;;;24.08;33.24;95077.27;108527;1268;22530;-74
2024/04/01 09:04:59;;;;;;;51.40;8.40;;;;;;;24.01;33.43;95068.96;108712;1269;25885;-74
2024/04/01 09:07:30;;;;;;;54.50;9.10;;;;;;;23.69;32.66;95071.35;108713;1267;26488;-77
2024/04/01 09:10:00;;;;;;;37.80;8.20;;;;;;;23.49;33.31;95069.18;108647;1273;25575;-77
2024/04/01 09:12:31;;;;;;;48.80;8.90;;;;;;;23.33;33.44;95076.63;108670;1265;22540;-76
2024/04/01 09:15:02;;;;;;;37.50;8.30;;;;;;;23.36;33.91;95085.73;108752;1270;23113;-76
2024/04/01 09:17:32;;;;;;;45.40;8.60;;;;;;;23.52;33.66;95087.00;108699;1267;22520;-77
2024/04/01 09:20:05;;;;;;;48.00;9.40;;;;;;;23.70;33.87;95091.13;108597;1270;22545;-76
2024/04/01 09:22:36;;;;;;;40.70;8.00;;;;;;;23.77;33.44;95082.20;108676;1266;22559;-76
2024/04/01 09:25:08;;;;;;;42.60;7.30;;;;;;;23.75;33.91;95088.77;108489;1270;24245;-76
2024/04/01 09:27:39;;;;;;;46.80;8.70;;;;;;;23.91;34.21;95096.83;108649;1274;22648;-76
2024/04/01 09:30:12;;;;;;;38.60;8.60;;;;;;;23.94;33.81;95086.67;108714;1264;22920;-76
2024/04/01 09:32:43;;;;;;;31.60;7.20;;;;;;;23.66;33.81;95088.16;108629;1274;24462;-76
2024/04/01 09:35:17;;;;;;;41.50;7.50;;;;;;;23.51;34.14;95091.27;108550;1274;24250;-77
2024/04/01 09:37:49;;;;;;;43.10;9.20;;;;;;;23.41;34.50;95091.73;108474;1275;22529;-77
2024/04/01 09:40:22;;;;;;;50.60;10.30;;;;;;;23.62;34.92;95098.38;108505;1268;23301;-77
2024/04/01 09:42:57;;;;;;;52.00;9.40;;;;;;;23.75;34.27;95084.76;108639;1269;22539;-76
2024/04/01 09:45:29;;;;;;;37.70;8.70;;;;;;;23.65;34.10;95078.81;108594;1267;22523;-76
2024/04/01 09:48:03;;;;;;;34.20;7.50;;;;;;;23.47;34.03;95078.45;108724;1273;24280;-76
2024/04/01 09:50:36;;;;;;;43.80;8.40;;;;;;;23.37;34.31;95080.54;108669;1267;22534;-76
2024/04/01 09:53:08;;;;;;;45.60;8.30;;;;;;;23.51;34.69;95082.92;108776;1273;22520;-76
2024/04/01 09:56:06;;;;;;;42.80;7.80;;;;;;;23.59;34.31;95078.95;108682;1268;24230;-76
2024/04/01 09:59:09;;;;;;;37.30;6.90;;;;;;;23.60;34.37;95074.05;108709;1267;24225;-76
2024/04/01 10:01:57;;;;;;;40.10;7.40;;;;;;;23.50;34.02;95082.30;108741;1270;22550;-76
2024/04/01 10:05:00;;;;;;;41.90;7.90;;;;;;;23.45;33.75;95074.91;108668;1268;22547;-75
2024/04/01 10:08:04;;;;;;;44.00;8.00;;;;;;;23.41;34.05;95067.85;108647;1268;22522;-77
2024/04/01 10:11:24;;;;;;;40.40;7.50;;;;;;;23.51;34.28;95068.31;108567;1275;22542;-77
2024/04/01 10:14:42;;;;;;;31.10;6.70;;;;;;;23.76;34.68;95060.08;108511;1268;23074;-77
2024/04/01 10:17:49;;;;;;;45.60;8.10;;;;;;;23.93;34.47;95061.16;108069;1273;22571;-77
2024/04/01 10:20:46;;;;;;;45.30;8.00;;;;;;;24.05;34.23;95058.95;108602;1268;25423;-77
2024/04/01 10:23:46;;;;;;;25.90;6.20;;;;;;;24.08;34.30;95069.59;108571;1272;25385;-77
2024/04/01 10:26:50;;;;;;;32.50;6.20;;;;;;;24.24;34.39;95064.02;108529;1275;22640;-77
2024/04/01 10:29:54;;;;;;;39.10;7.90;;;;;;;24.30;33.52;95059.00;108604;1269;22601;-76
2024/04/01 10:33:11;;;;;;;23.50;5.90;;;;;;;24.00;32.92;95060.78;108712;1268;22531;-77
2024/04/01 10:36:11;;;;;;;30.90;6.30;;;;;;;23.96;32.97;95068.64;108619;1267;26661;-77
2024/04/01 10:39:26;;;;;;;29.90;5.90;;;;;;;24.04;33.66;95065.98;108641;1268;24184;-77
2024/04/01 10:42:31;;;;;;;31.40;6.10;;;;;;;24.04;33.61;95068.55;108508;1274;22572;-77
2024/04/01 10:45:49;;;;;;;38.60;6.80;;;;;;;23.91;33.42;95071.38;108592;1267;22547;-78
2024/04/01 10:48:25;;;;;;;34.60;6.30;;;;;;;24.03;33.69;95062.21;108058;1276;22532;-78
2024/04/01 10:51:37;;;;;;;27.30;5.90;;;;;;;24.03;33.20;95048.76;108555;1268;22523;-78
2024/04/01 10:54:16;;;;;;;27.30;5.20;;;;;;;23.81;32.48;95046.27;108651;1270;22541;-78
2024/04/01 10:57:32;;;;;;;25.70;4.90;;;;;;;23.71;32.08;95057.50;108616;1271;23995;-76
2024/04/01 11:00:39;;;;;;;23.50;5.20;;;;;;;23.58;32.09;95017.80;108490;1270;22526;-77
2024/04/01 11:03:46;;;;;;;30.80;6.80;;;;;;;23.49;32.75;95021.64;108630;1267;22533;-76
2024/04/01 11:06:35;;;;;;;22.00;4.90;;;;;;;23.55;32.92;95006.84;108684;1268;25413;-76
2024/04/01 11:09:29;;;;;;;38.00;5.70;;;;;;;23.50;32.31;95005.71;108637;1271;24219;-77
2024/04/01 11:12:14;;;;;;;27.80;4.90;;;;;;;23.42;32.46;94987.25;108735;1267;22677;-77
2024/04/01 11:14:47;;;;;;;26.80;4.90;;;;;;;23.21;32.14;94994.84;108517;1266;24290;-75
2024/04/01 11:17:22;;;;;;;44.90;6.60;;;;;;;23.17;32.32;94992.86;108672;1270;22546;-76
2024/04/01 11:20:31;;;;;;;28.80;4.90;;;;;;;23.23;32.98;94988.10;108709;1267;22748;-75
2024/04/01 11:23:27;;;;;;;36.40;6.90;;;;;;;23.25;32.29;94991.73;108663;1267;22536;-75
2024/04/01 11:26:13;;;;;;;29.00;5.80;;;;;;;23.36;33.01;94967.27;108703;1270;22527;-75
2024/04/01 11:29:09;;;;;;;31.90;6.10;;;;;;;23.45;32.61;94959.02;108735;1267;23991;-75
2024/04/01 11:31:47;;;;;;;32.80;6.10;;;;;;;23.39;31.98;94959.14;108718;1270;22516;-75
2024/04/01 11:34:21;;;;;;;32.00;6.60;;;;;;;23.35;32.23;94960.87;108679;1267;22564;-74
2024/04/01 11:37:00;;;;;;;40.70;6.90;;;;;;;23.32;32.12;94966.08;108714;1267;22546;-75
2024/04/01 11:39:33;;;;;;;33.90;6.30;;;;;;;23.31;31.91;94970.03;108724;1270;22529;-75
2024/04/01 11:42:06;;;;;;;39.50;7.30;;;;;;;23.28;31.10;94957.70;108718;1268;22547;-75
2024/04/01 11:44:43;;;;;;;28.00;5.50;;;;;;;23.21;31.35;94947.64;108581;1268;23398;-74
2024/04/01 11:47:20;;;;;;;45.80;7.00;;;;;;;23.05;30.87;94920.51;108764;1267;23293;-75
2024/04/01 11:49:51;;;;;;;29.70;6.00;;;;;;;22.94;31.21;94937.35;108710;1268;22565;-75
2024/04/01 11:52:27;;;;;;;29.10;4.80;;;;;;;22.91;31.26;94933.98;108699;1267;22566;-75
2024/04/01 11:55:16;;;;;;;33.20;7.20;;;;;;;22.85;31.16;94924.23;108488;1269;22522;-76
2024/04/01 11:57:50;;;;;;;32.00;6.70;;;;;;;22.83;31.18;94946.55;108536;1267;22570;-75
2024/04/01 12:00:24;;;;;;;29.50;5.70;;;;;;;22.79;31.21;94963.75;108625;1266;22657;-75
2024/04/01 12:02:57;;;;;;;34.40;6.10;;;;;;;22.78;31.00;94946.32;108694;1268;25271;-74
2024/04/01 12:05:28;;;;;;;34.50;5.80;;;;;;;22.76;31.07;94959.23;108685;1274;23648;-76
2024/04/01 12:07:59;;;;;;;39.20;7.30;;;;;;;22.74;31.31;94960.87;108744;1274;22864;-75